createdAt,value
2016-12-27T00:00:43.071Z,6.26
2016-12-27T00:03:36.658Z,6.27
2016-12-27T00:06:30.034Z,6.30
2016-12-27T00:09:23.567Z,6.31
2016-12-27T00:12:16.961Z,6.33
2016-12-27T00:15:10.429Z,6.34
2016-12-27T00:18:03.889Z,6.36
2016-12-27T00:20:57.281Z,6.40
2016-12-27T00:26:44.289Z,6.46
2016-12-27T00:29:37.794Z,6.47
2016-12-27T00:32:31.291Z,6.49
2016-12-27T00:35:24.828Z,6.50
2016-12-27T00:38:18.396Z,6.52
2016-12-27T00:41:12.459Z,6.52
2016-12-27T00:46:59.557Z,6.51
2016-12-27T00:49:53.067Z,6.47
2016-12-27T00:52:46.529Z,6.44
2016-12-27T00:55:40.089Z,6.43
2016-12-27T00:58:33.648Z,6.42
2016-12-27T01:01:27.238Z,6.43
2016-12-27T01:07:14.184Z,6.44
2016-12-27T01:10:07.901Z,6.46
2016-12-27T01:13:01.532Z,6.46
2016-12-27T01:15:55.073Z,6.45
2016-12-27T01:18:48.524Z,6.44
2016-12-27T01:21:41.920Z,6.46
2016-12-27T01:24:35.410Z,6.50
2016-12-27T01:27:28.934Z,6.52
2016-12-27T01:30:22.479Z,6.53
2016-12-27T01:33:15.994Z,6.56
2016-12-27T01:39:02.942Z,6.62
2016-12-27T01:41:56.541Z,6.64
2016-12-27T01:44:50.046Z,6.65
2016-12-27T01:47:43.544Z,6.65
2016-12-27T01:53:31.046Z,6.59
2016-12-27T01:59:18.003Z,6.53
2016-12-27T02:02:11.474Z,6.48
2016-12-27T02:05:04.832Z,6.45
2016-12-27T02:07:58.198Z,6.44
2016-12-27T02:10:51.712Z,6.44
2016-12-27T02:13:45.205Z,6.44
2016-12-27T02:16:38.647Z,6.45
2016-12-27T02:22:25.704Z,6.48
2016-12-27T02:25:19.336Z,6.51
2016-12-27T02:31:06.230Z,6.56
2016-12-27T02:33:59.739Z,6.60
2016-12-27T02:42:40.104Z,6.67
2016-12-27T02:51:20.562Z,6.72
2016-12-27T02:57:07.550Z,6.74
2016-12-27T03:00:01.031Z,6.76
2016-12-27T03:02:54.538Z,6.77
2016-12-27T03:05:48.180Z,6.80
2016-12-27T03:08:41.583Z,6.82
2016-12-27T03:17:22.010Z,6.85
2016-12-27T03:20:15.496Z,6.87
2016-12-27T03:23:09.036Z,6.88
2016-12-27T03:26:02.580Z,6.89
2016-12-27T03:28:55.852Z,6.90
2016-12-27T03:31:49.260Z,6.92
2016-12-27T03:34:42.733Z,6.93
2016-12-27T03:37:36.180Z,6.93
2016-12-27T03:46:16.715Z,6.92
2016-12-27T03:49:10.217Z,6.93
2016-12-27T03:54:57.247Z,6.96
2016-12-27T03:57:50.721Z,6.98
2016-12-27T04:00:44.185Z,7.00
2016-12-27T04:03:37.611Z,7.03
2016-12-27T04:06:31.129Z,7.05
2016-12-27T04:09:24.627Z,7.07
2016-12-27T04:12:18.221Z,7.07
2016-12-27T04:15:11.644Z,7.07
2016-12-27T04:23:52.155Z,7.13
2016-12-27T04:26:45.659Z,7.13
2016-12-27T04:29:39.054Z,7.13
2016-12-27T04:35:26.169Z,7.16
2016-12-27T04:38:19.623Z,7.17
2016-12-27T04:44:06.637Z,7.20
2016-12-27T04:49:54.080Z,7.22
2016-12-27T04:55:41.061Z,7.21
2016-12-27T04:58:34.487Z,7.20
2016-12-27T05:01:28.100Z,7.21
2016-12-27T05:07:14.888Z,7.21
2016-12-27T05:10:08.386Z,7.22
2016-12-27T05:13:01.923Z,7.23
2016-12-27T05:18:48.838Z,7.22
2016-12-27T05:21:42.345Z,7.21
2016-12-27T05:24:35.822Z,7.21
2016-12-27T05:27:29.269Z,7.20
2016-12-27T05:30:22.832Z,7.17
2016-12-27T05:33:16.149Z,7.14
2016-12-27T05:36:09.620Z,7.12
2016-12-27T05:41:56.617Z,7.12
2016-12-27T05:50:37.009Z,7.09
2016-12-27T05:56:23.979Z,7.10
2016-12-27T05:59:17.413Z,7.11
2016-12-27T06:02:10.783Z,7.07
2016-12-27T06:05:04.299Z,7.02
2016-12-27T06:07:57.642Z,7.00
2016-12-27T06:10:51.113Z,7.00
2016-12-27T06:13:44.612Z,6.97
2016-12-27T06:16:38.051Z,6.94
2016-12-27T06:19:31.444Z,6.87
2016-12-27T06:22:25.067Z,6.81
2016-12-27T06:25:18.328Z,6.81
2016-12-27T06:28:11.754Z,6.84
2016-12-27T06:31:05.213Z,6.88
2016-12-27T06:33:59.106Z,6.92
2016-12-27T06:36:52.551Z,6.95
2016-12-27T06:39:46.082Z,6.96
2016-12-27T06:42:40.019Z,6.97
2016-12-27T06:45:33.368Z,6.98
2016-12-27T06:48:26.691Z,7.01
2016-12-27T06:51:20.066Z,7.01
2016-12-27T06:57:07.103Z,7.01
2016-12-27T07:00:00.573Z,6.99
2016-12-27T07:05:47.379Z,6.98
2016-12-27T07:11:34.362Z,7.01
2016-12-27T07:17:21.386Z,7.02
2016-12-27T07:23:08.246Z,7.01
2016-12-27T07:26:01.654Z,7.01
2016-12-27T07:28:54.985Z,7.04
2016-12-27T07:31:48.496Z,7.04
2016-12-27T07:34:41.968Z,7.04
2016-12-27T07:37:35.362Z,7.05
2016-12-27T07:40:28.706Z,7.08
2016-12-27T07:43:22.164Z,7.12
2016-12-27T07:49:09.065Z,7.18
2016-12-27T07:52:02.561Z,7.20
2016-12-27T07:54:55.999Z,7.22
2016-12-27T07:57:49.374Z,7.22
2016-12-27T08:03:36.289Z,7.21
2016-12-27T08:06:29.720Z,7.23
2016-12-27T08:09:23.143Z,7.24
2016-12-27T08:12:16.500Z,7.26
2016-12-27T08:18:03.485Z,7.36
2016-12-27T08:20:56.960Z,7.43
2016-12-27T08:23:50.520Z,7.52
2016-12-27T08:26:43.978Z,7.59
2016-12-27T08:32:31.003Z,7.67
2016-12-27T08:35:24.434Z,7.69
2016-12-27T08:41:11.416Z,7.67
2016-12-27T08:44:04.868Z,7.70
2016-12-27T08:46:58.224Z,7.71
2016-12-27T08:49:52.073Z,7.71
2016-12-27T08:52:45.571Z,7.72
2016-12-27T08:55:38.971Z,7.73
2016-12-27T08:58:32.436Z,7.75
2016-12-27T09:01:26.509Z,7.78
2016-12-27T09:04:20.549Z,7.79
2016-12-27T09:07:14.028Z,7.83
2016-12-27T09:10:07.562Z,7.86
2016-12-27T09:13:01.018Z,7.90
2016-12-27T09:15:54.601Z,7.89
2016-12-27T09:21:41.561Z,7.89
2016-12-27T09:24:35.108Z,7.91
2016-12-27T09:30:22.169Z,7.99
2016-12-27T09:33:15.736Z,8.04
2016-12-27T09:36:09.102Z,8.09
2016-12-27T09:39:02.757Z,8.13
2016-12-27T09:41:56.315Z,8.16
2016-12-27T09:44:49.849Z,8.19
2016-12-27T09:50:36.909Z,8.24
2016-12-27T09:53:30.417Z,8.28
2016-12-27T09:56:23.911Z,8.32
2016-12-27T09:59:17.492Z,8.36
2016-12-27T10:02:11.034Z,8.40
2016-12-27T10:05:04.403Z,8.42
2016-12-27T10:07:58.102Z,8.43
2016-12-27T10:10:51.591Z,8.45
2016-12-27T10:19:32.499Z,8.47
2016-12-27T10:25:19.963Z,8.51
2016-12-27T10:31:07.388Z,8.49
2016-12-27T10:34:01.207Z,8.50
2016-12-27T10:39:48.743Z,8.53
2016-12-27T10:42:42.488Z,8.53
2016-12-27T10:48:30.050Z,8.55
2016-12-27T10:51:23.839Z,8.55
2016-12-27T10:57:11.922Z,8.56
2016-12-27T11:00:05.707Z,8.55
2016-12-27T11:02:59.485Z,8.55
2016-12-27T11:14:34.658Z,8.56
2016-12-27T11:17:28.715Z,8.55
2016-12-27T11:26:10.178Z,8.63
2016-12-27T11:29:03.861Z,8.64
2016-12-27T11:31:57.631Z,8.67
2016-12-27T11:34:51.528Z,8.66
2016-12-27T11:37:45.312Z,8.62
2016-12-27T11:40:39.096Z,8.59
2016-12-27T11:46:26.780Z,8.57
2016-12-27T11:52:14.276Z,8.57
2016-12-27T11:55:07.933Z,8.58
2016-12-27T11:58:01.743Z,8.57
2016-12-27T12:00:55.759Z,8.58
2016-12-27T12:03:49.381Z,8.59
2016-12-27T12:06:43.064Z,8.60
2016-12-27T12:09:36.869Z,8.62
2016-12-27T12:12:30.680Z,8.66
2016-12-27T12:15:24.362Z,8.65
2016-12-27T12:21:11.794Z,8.61
2016-12-27T12:26:59.661Z,8.67
2016-12-27T12:32:47.132Z,8.69
2016-12-27T12:35:40.872Z,8.68
2016-12-27T12:38:34.559Z,8.68
2016-12-27T12:41:28.325Z,8.69
2016-12-27T12:44:22.209Z,8.72
2016-12-27T12:47:15.960Z,8.72
2016-12-27T12:53:03.429Z,8.73
2016-12-27T12:58:51.136Z,8.71
2016-12-27T13:01:44.859Z,8.71
2016-12-27T13:04:38.632Z,8.71
2016-12-27T13:07:32.388Z,8.68
2016-12-27T13:10:26.195Z,8.67
2016-12-27T13:13:19.924Z,8.66
2016-12-27T13:16:13.754Z,8.65
2016-12-27T13:19:07.494Z,8.63
2016-12-27T13:22:01.155Z,8.60
2016-12-27T13:24:54.909Z,8.60
2016-12-27T13:27:48.592Z,8.59
2016-12-27T13:30:42.291Z,8.59
2016-12-27T13:33:36.153Z,8.60
2016-12-27T13:42:17.793Z,8.63
2016-12-27T13:45:11.530Z,8.63
2016-12-27T13:48:05.100Z,8.61
2016-12-27T13:50:58.981Z,8.61
2016-12-27T13:53:52.799Z,8.62
2016-12-27T13:56:46.556Z,8.62
2016-12-27T14:02:34.096Z,8.57
2016-12-27T14:05:27.904Z,8.52
2016-12-27T14:08:21.584Z,8.50
2016-12-27T14:14:09.453Z,8.38
2016-12-27T14:17:03.124Z,8.34
2016-12-27T14:19:56.912Z,8.32
2016-12-27T14:22:50.560Z,8.30
2016-12-27T14:25:44.366Z,8.27
2016-12-27T14:28:38.019Z,8.23
2016-12-27T14:34:25.438Z,8.15
2016-12-27T14:37:19.174Z,8.08
2016-12-27T14:40:12.822Z,8.02
2016-12-27T14:43:06.619Z,7.95
2016-12-27T14:46:00.325Z,7.89
2016-12-27T14:48:54.039Z,7.84
2016-12-27T14:51:47.668Z,7.80
2016-12-27T14:54:41.329Z,7.77
2016-12-27T14:57:34.967Z,7.72
2016-12-27T15:00:28.652Z,7.67
2016-12-27T15:03:22.321Z,7.63
2016-12-27T15:06:15.931Z,7.56
2016-12-27T15:12:03.352Z,7.47
2016-12-27T15:14:56.887Z,7.43
2016-12-27T15:17:50.492Z,7.39
2016-12-27T15:20:44.125Z,7.37
2016-12-27T15:23:37.856Z,7.33
2016-12-27T15:26:31.319Z,7.32
2016-12-27T15:29:24.938Z,7.30
2016-12-27T15:32:18.511Z,7.28
2016-12-27T15:35:12.066Z,7.26
2016-12-27T15:43:52.481Z,7.23
2016-12-27T15:49:39.612Z,7.20
2016-12-27T15:52:33.092Z,7.19
2016-12-27T15:55:26.627Z,7.21
2016-12-27T15:58:20.034Z,7.20
2016-12-27T16:01:13.594Z,7.20
2016-12-27T16:04:07.133Z,7.20
2016-12-27T16:07:00.605Z,7.22
2016-12-27T16:09:54.118Z,7.24
2016-12-27T16:15:41.158Z,7.26
2016-12-27T16:18:34.733Z,7.25
2016-12-27T16:21:28.266Z,7.24
2016-12-27T16:33:02.503Z,7.18
2016-12-27T16:38:49.371Z,7.15
2016-12-27T16:41:42.956Z,7.13
2016-12-27T16:44:36.419Z,7.14
2016-12-27T16:47:29.906Z,7.13
2016-12-27T16:50:23.300Z,7.11
2016-12-27T16:53:16.877Z,7.07
2016-12-27T16:56:10.433Z,7.03
2016-12-27T16:59:03.851Z,7.01
2016-12-27T17:04:50.914Z,6.96
2016-12-27T17:07:44.518Z,6.93
2016-12-27T17:10:37.932Z,6.91
2016-12-27T17:13:31.379Z,6.90
2016-12-27T17:19:18.297Z,6.84
2016-12-27T17:25:05.302Z,6.85
2016-12-27T17:27:58.724Z,6.83
2016-12-27T17:36:39.338Z,6.78
2016-12-27T17:45:19.714Z,6.75
2016-12-27T17:48:13.238Z,6.74
2016-12-27T17:51:06.636Z,6.74
2016-12-27T17:54:00.162Z,6.74
2016-12-27T17:56:53.797Z,6.76
2016-12-27T18:02:40.859Z,6.84
2016-12-27T18:08:27.948Z,6.92
2016-12-27T18:11:21.354Z,6.95
2016-12-27T18:14:14.922Z,6.98
2016-12-27T18:17:08.453Z,7.04
2016-12-27T18:22:55.346Z,7.05
2016-12-27T18:34:29.440Z,7.03
2016-12-27T18:37:22.948Z,7.02
2016-12-27T18:40:16.352Z,7.01
2016-12-27T18:48:56.844Z,7.03
2016-12-27T18:51:50.326Z,7.03
2016-12-27T18:54:43.778Z,7.02
2016-12-27T18:57:37.264Z,7.00
2016-12-27T19:00:30.757Z,6.98
2016-12-27T19:06:17.887Z,6.93
2016-12-27T19:09:11.371Z,6.89
2016-12-27T19:12:04.897Z,6.87
2016-12-27T19:14:58.774Z,6.85
2016-12-27T19:17:52.102Z,6.84
2016-12-27T19:23:39.066Z,6.81
2016-12-27T19:26:32.510Z,6.80
2016-12-27T19:29:25.866Z,6.80
2016-12-27T19:32:19.265Z,6.77
2016-12-27T19:35:12.744Z,6.75
2016-12-27T19:38:06.293Z,6.76
2016-12-27T19:40:59.802Z,6.75
2016-12-27T19:46:46.720Z,6.80
2016-12-27T19:49:40.310Z,6.82
2016-12-27T19:52:33.772Z,6.84
2016-12-27T19:55:27.198Z,6.87
2016-12-27T19:58:21.665Z,6.91
2016-12-27T20:01:14.032Z,6.94
2016-12-27T20:09:55.044Z,7.00
2016-12-27T20:12:48.571Z,7.02
2016-12-27T20:15:42.085Z,7.04
2016-12-27T20:18:35.513Z,7.06
2016-12-27T20:21:29.056Z,7.08
2016-12-27T20:24:22.580Z,7.09
2016-12-27T20:27:16.012Z,7.12
2016-12-27T20:30:09.523Z,7.15
2016-12-27T20:33:03.063Z,7.18
2016-12-27T20:35:56.501Z,7.21
2016-12-27T20:38:49.980Z,7.24
2016-12-27T20:44:37.114Z,7.28
2016-12-27T20:47:30.626Z,7.30
2016-12-27T20:53:17.528Z,7.33
2016-12-27T20:59:04.578Z,7.37
2016-12-27T21:04:51.673Z,7.37
2016-12-27T21:07:45.064Z,7.38
2016-12-27T21:10:38.572Z,7.37
2016-12-27T21:13:32.007Z,7.37
2016-12-27T21:16:25.554Z,7.36
2016-12-27T21:19:18.933Z,7.35
2016-12-27T21:25:06.021Z,7.34
2016-12-27T21:27:59.570Z,7.34
2016-12-27T21:30:53.041Z,7.36
2016-12-27T21:39:33.637Z,7.37
2016-12-27T21:42:27.036Z,7.37
2016-12-27T21:45:20.528Z,7.37
2016-12-27T21:48:13.965Z,7.37
2016-12-27T21:51:07.395Z,7.36
2016-12-27T21:54:00.893Z,7.36
2016-12-27T21:56:54.463Z,7.38
2016-12-27T21:59:47.836Z,7.39
2016-12-27T22:05:34.838Z,7.44
2016-12-27T22:11:21.962Z,7.48
2016-12-27T22:14:15.311Z,7.48
2016-12-27T22:17:08.822Z,7.50
2016-12-27T22:20:02.264Z,7.51
2016-12-27T22:22:55.699Z,7.51
2016-12-27T22:25:49.165Z,7.51
2016-12-27T22:28:42.650Z,7.52
2016-12-27T22:31:36.138Z,7.51
2016-12-27T22:34:29.658Z,7.51
2016-12-27T22:37:23.119Z,7.51
2016-12-27T22:40:16.596Z,7.51
2016-12-27T22:43:10.103Z,7.52
2016-12-27T22:46:03.546Z,7.51
2016-12-27T22:48:57.059Z,7.51
2016-12-27T22:51:50.552Z,7.51
2016-12-27T22:54:43.926Z,7.50
2016-12-27T23:00:30.981Z,7.47
2016-12-27T23:03:24.435Z,7.47
2016-12-27T23:09:11.560Z,7.46
2016-12-27T23:12:05.052Z,7.45
2016-12-27T23:14:58.416Z,7.46
2016-12-27T23:17:51.970Z,7.46
2016-12-27T23:23:38.885Z,7.46
2016-12-27T23:26:32.241Z,7.45
2016-12-27T23:29:25.659Z,7.47
2016-12-27T23:32:19.101Z,7.45
2016-12-27T23:38:06.193Z,7.44
2016-12-27T23:41:00.646Z,7.45
2016-12-27T23:46:46.748Z,7.45
2016-12-27T23:49:40.386Z,7.45
2016-12-27T23:52:33.821Z,7.46
2016-12-27T23:58:21.101Z,7.48
